AUA108 LOWW-LOWI
Flight info
| Callsign | AUA108 |
|---|---|
| Flight time | 0h 43m |
| Altitude | 30000 |
| Route | SOVIL DCT SITNI DCT BAGSI DCT NANIT NANIT2A |
| Aircraft | A321/M-SDE3FGHIRWY/LB1 |
Departure
| Time | 2026-05-04 07:58 |
|---|---|
| Airport | Vienna International Airport (LOWW) |
Arrival
| Time | 2026-05-04 08:41 |
|---|---|
| Airport | Innsbruck Airport (LOWI) |
| Time | Latitude | Longitude | Altitude | Speed | Heading |
|---|---|---|---|---|---|
| 2026-05-04 07:09 | 48.11926 | 16.55632 | 610 ft | 0 kts | 25° |
| 2026-05-04 07:43 | 48.11911 | 16.55622 | 623 ft | 2 kts | 25° |
| 2026-05-04 07:44 | 48.11896 | 16.55611 | 623 ft | 2 kts | 25° |
| 2026-05-04 07:44 | 48.11882 | 16.55601 | 626 ft | 2 kts | 32° |
| 2026-05-04 07:44 | 48.11869 | 16.55586 | 617 ft | 2 kts | 60° |
| 2026-05-04 07:44 | 48.11864 | 16.55570 | 626 ft | 0 kts | 84° |
| 2026-05-04 07:45 | 48.11863 | 16.55554 | 623 ft | 2 kts | 98° |
| 2026-05-04 07:45 | 48.11865 | 16.55539 | 623 ft | 2 kts | 107° |
| 2026-05-04 07:45 | 48.11868 | 16.55524 | 620 ft | 2 kts | 112° |
| 2026-05-04 07:46 | 48.11871 | 16.55513 | 623 ft | 2 kts | 112° |
| 2026-05-04 07:46 | 48.11872 | 16.55509 | 623 ft | 0 kts | 112° |
| 2026-05-04 07:49 | 48.11781 | 16.55791 | 612 ft | 14 kts | 114° |
| 2026-05-04 07:49 | 48.11745 | 16.55910 | 619 ft | 12 kts | 115° |
| 2026-05-04 07:49 | 48.11712 | 16.56012 | 621 ft | 10 kts | 116° |
| 2026-05-04 07:50 | 48.11675 | 16.56122 | 611 ft | 14 kts | 115° |
| 2026-05-04 07:50 | 48.11631 | 16.56260 | 619 ft | 14 kts | 115° |
| 2026-05-04 07:50 | 48.11590 | 16.56389 | 613 ft | 14 kts | 116° |
| 2026-05-04 07:50 | 48.11548 | 16.56519 | 617 ft | 14 kts | 116° |
| 2026-05-04 07:51 | 48.11501 | 16.56658 | 619 ft | 18 kts | 116° |
| 2026-05-04 07:51 | 48.11438 | 16.56851 | 623 ft | 21 kts | 116° |
| 2026-05-04 07:51 | 48.11374 | 16.57048 | 618 ft | 21 kts | 115° |
| 2026-05-04 07:51 | 48.11312 | 16.57246 | 623 ft | 21 kts | 115° |
| 2026-05-04 07:52 | 48.11247 | 16.57440 | 626 ft | 15 kts | 117° |
| 2026-05-04 07:52 | 48.11211 | 16.57546 | 617 ft | 11 kts | 117° |
| 2026-05-04 07:52 | 48.11219 | 16.57651 | 619 ft | 10 kts | 43° |
| 2026-05-04 07:52 | 48.11290 | 16.57690 | 617 ft | 13 kts | 359° |
| 2026-05-04 07:53 | 48.11394 | 16.57644 | 623 ft | 16 kts | 343° |
| 2026-05-04 07:54 | 48.12001 | 16.57565 | 614 ft | 0 kts | 104° |
| 2026-05-04 07:55 | 48.11992 | 16.57614 | 610 ft | 12 kts | 104° |
| 2026-05-04 07:56 | 48.11963 | 16.57773 | 617 ft | 14 kts | 111° |
| 2026-05-04 07:56 | 48.11949 | 16.57817 | 612 ft | 4 kts | 119° |
| 2026-05-04 07:56 | 48.11919 | 16.57845 | 617 ft | 7 kts | 162° |
| 2026-05-04 07:56 | 48.11904 | 16.57851 | 615 ft | 0 kts | 165° |
| 2026-05-04 07:57 | 48.11803 | 16.57893 | 622 ft | 47 kts | 164° |
| 2026-05-04 07:57 | 48.11264 | 16.58122 | 613 ft | 113 kts | 164° |
| 2026-05-04 07:58 | 48.10336 | 16.58517 | 623 ft | 162 kts | 162° |
| 2026-05-04 07:58 | 48.09255 | 16.58998 | 1263 ft | 162 kts | 165° |
| 2026-05-04 07:58 | 48.08119 | 16.59477 | 1675 ft | 180 kts | 167° |
| 2026-05-04 07:58 | 48.06855 | 16.59984 | 2133 ft | 193 kts | 169° |
| 2026-05-04 07:59 | 48.05476 | 16.59908 | 2551 ft | 213 kts | 204° |
| 2026-05-04 07:59 | 48.04283 | 16.58415 | 3000 ft | 236 kts | 229° |
| 2026-05-04 07:59 | 48.03284 | 16.56397 | 3756 ft | 247 kts | 234° |
| 2026-05-04 07:59 | 48.02323 | 16.54225 | 4591 ft | 254 kts | 235° |
| 2026-05-04 08:00 | 48.01346 | 16.52016 | 5465 ft | 256 kts | 235° |
| 2026-05-04 08:00 | 48.00328 | 16.49776 | 6218 ft | 264 kts | 234° |
| 2026-05-04 08:00 | 47.99267 | 16.47519 | 7041 ft | 267 kts | 234° |
| 2026-05-04 08:02 | 47.98517 | 16.26609 | 11332 ft | 333 kts | 271° |
| 2026-05-04 08:02 | 47.98651 | 16.23142 | 12031 ft | 336 kts | 271° |
| 2026-05-04 08:02 | 47.98782 | 16.19641 | 12758 ft | 339 kts | 271° |
| 2026-05-04 08:03 | 47.98913 | 16.16115 | 13484 ft | 342 kts | 270° |
| 2026-05-04 08:03 | 47.99047 | 16.12553 | 14165 ft | 345 kts | 271° |
| 2026-05-04 08:03 | 47.99245 | 16.08964 | 14792 ft | 349 kts | 273° |
| 2026-05-04 08:03 | 47.99515 | 16.05349 | 15412 ft | 352 kts | 274° |
| 2026-05-04 08:04 | 47.99821 | 16.01704 | 16047 ft | 355 kts | 275° |
| 2026-05-04 08:04 | 48.00135 | 15.98026 | 16670 ft | 359 kts | 275° |
| 2026-05-04 08:04 | 48.00444 | 15.94314 | 17236 ft | 362 kts | 275° |
| 2026-05-04 08:04 | 48.00744 | 15.90569 | 17842 ft | 365 kts | 274° |
| 2026-05-04 08:05 | 48.01037 | 15.86797 | 18478 ft | 366 kts | 274° |
| 2026-05-04 08:05 | 48.01324 | 15.83012 | 19006 ft | 368 kts | 274° |
| 2026-05-04 08:05 | 48.01608 | 15.79199 | 19545 ft | 371 kts | 274° |
| 2026-05-04 08:05 | 48.01894 | 15.75346 | 20055 ft | 374 kts | 274° |
| 2026-05-04 08:06 | 48.02182 | 15.71469 | 20549 ft | 377 kts | 274° |
| 2026-05-04 08:06 | 48.02473 | 15.67559 | 21026 ft | 380 kts | 274° |
| 2026-05-04 08:06 | 48.02761 | 15.63663 | 21474 ft | 383 kts | 274° |
| 2026-05-04 08:06 | 48.03050 | 15.59693 | 21929 ft | 386 kts | 275° |
| 2026-05-04 08:08 | 48.04890 | 15.31146 | 24795 ft | 401 kts | 271° |
| 2026-05-04 08:08 | 48.04946 | 15.26968 | 25176 ft | 403 kts | 270° |
| 2026-05-04 08:10 | 48.05304 | 14.92838 | 28162 ft | 418 kts | 271° |
| 2026-05-04 08:11 | 48.05364 | 14.88478 | 28524 ft | 420 kts | 271° |
| 2026-05-04 08:11 | 48.05470 | 14.79712 | 29231 ft | 424 kts | 271° |
| 2026-05-04 08:11 | 48.05508 | 14.75301 | 29574 ft | 425 kts | 271° |
| 2026-05-04 08:12 | 48.05540 | 14.70870 | 29910 ft | 427 kts | 271° |
| 2026-05-04 08:12 | 48.05568 | 14.66435 | 30026 ft | 423 kts | 271° |
| 2026-05-04 08:12 | 48.05595 | 14.62122 | 30049 ft | 409 kts | 271° |
| 2026-05-04 08:12 | 48.05624 | 14.57967 | 30051 ft | 403 kts | 271° |
| 2026-05-04 08:13 | 48.05681 | 14.49625 | 30052 ft | 400 kts | 271° |
| 2026-05-04 08:13 | 48.05732 | 14.41314 | 30055 ft | 400 kts | 271° |
| 2026-05-04 08:14 | 48.05740 | 14.33006 | 30053 ft | 400 kts | 267° |
| 2026-05-04 08:16 | 47.97020 | 14.02496 | 30062 ft | 401 kts | 245° |
| 2026-05-04 08:16 | 47.94541 | 13.95052 | 30059 ft | 400 kts | 245° |
| 2026-05-04 08:17 | 47.92055 | 13.87622 | 30054 ft | 400 kts | 245° |
| 2026-05-04 08:17 | 47.89564 | 13.80197 | 30057 ft | 400 kts | 245° |
| 2026-05-04 08:19 | 47.80850 | 13.54406 | 29317 ft | 397 kts | 244° |
| 2026-05-04 08:19 | 47.79608 | 13.50738 | 29487 ft | 398 kts | 244° |
| 2026-05-04 08:20 | 47.77112 | 13.43379 | 29362 ft | 399 kts | 244° |
| 2026-05-04 08:20 | 47.75859 | 13.39694 | 28673 ft | 398 kts | 244° |
| 2026-05-04 08:20 | 47.74620 | 13.36060 | 28200 ft | 392 kts | 244° |
| 2026-05-04 08:21 | 47.73395 | 13.32480 | 27709 ft | 385 kts | 244° |
| 2026-05-04 08:21 | 47.72189 | 13.28969 | 27249 ft | 379 kts | 244° |
| 2026-05-04 08:21 | 47.71004 | 13.25517 | 26804 ft | 372 kts | 244° |
| 2026-05-04 08:21 | 47.69822 | 13.22068 | 26369 ft | 379 kts | 244° |
| 2026-05-04 08:22 | 47.68623 | 13.18570 | 25948 ft | 380 kts | 243° |
| 2026-05-04 08:22 | 47.67422 | 13.15077 | 25535 ft | 380 kts | 243° |
| 2026-05-04 08:24 | 47.59118 | 12.91070 | 22586 ft | 366 kts | 243° |
| 2026-05-04 08:24 | 47.57958 | 12.87729 | 22129 ft | 363 kts | 243° |
| 2026-05-04 08:24 | 47.56806 | 12.84410 | 21691 ft | 361 kts | 242° |
| 2026-05-04 08:24 | 47.55660 | 12.81116 | 21305 ft | 358 kts | 242° |
| 2026-05-04 08:25 | 47.54518 | 12.77845 | 21050 ft | 357 kts | 242° |
| 2026-05-04 08:25 | 47.53391 | 12.74628 | 20799 ft | 356 kts | 242° |
| 2026-05-04 08:25 | 47.52254 | 12.71387 | 20552 ft | 354 kts | 242° |
| 2026-05-04 08:25 | 47.51121 | 12.68156 | 20295 ft | 353 kts | 242° |
| 2026-05-04 08:26 | 47.49996 | 12.64958 | 20024 ft | 347 kts | 242° |
| 2026-05-04 08:27 | 47.42547 | 12.43811 | 17109 ft | 316 kts | 241° |
| 2026-05-04 08:28 | 47.41538 | 12.40961 | 16730 ft | 311 kts | 241° |
| 2026-05-04 08:28 | 47.40558 | 12.38144 | 16350 ft | 305 kts | 245° |
| 2026-05-04 08:28 | 47.39894 | 12.35186 | 15966 ft | 303 kts | 256° |
| 2026-05-04 08:28 | 47.39662 | 12.32095 | 15586 ft | 304 kts | 268° |
| 2026-05-04 08:29 | 47.39845 | 12.28983 | 15194 ft | 305 kts | 276° |
| 2026-05-04 08:29 | 47.40151 | 12.25829 | 14803 ft | 313 kts | 276° |
| 2026-05-04 08:29 | 47.40453 | 12.22644 | 14403 ft | 313 kts | 276° |
| 2026-05-04 08:31 | 47.42388 | 12.01712 | 11667 ft | 264 kts | 275° |
| 2026-05-04 08:33 | 47.38978 | 11.85310 | 10002 ft | 225 kts | 234° |
| 2026-05-04 08:33 | 47.38101 | 11.83444 | 9681 ft | 218 kts | 234° |
| 2026-05-04 08:35 | 47.34604 | 11.71436 | 7711 ft | 170 kts | 245° |
| 2026-05-04 08:35 | 47.34158 | 11.69844 | 7447 ft | 166 kts | 245° |
| 2026-05-04 08:35 | 47.33722 | 11.68285 | 7206 ft | 163 kts | 245° |
| 2026-05-04 08:35 | 47.33291 | 11.66739 | 6955 ft | 164 kts | 246° |
| 2026-05-04 08:37 | 47.30708 | 11.57475 | 5423 ft | 161 kts | 245° |
| 2026-05-04 08:37 | 47.30295 | 11.55995 | 5189 ft | 153 kts | 246° |
| 2026-05-04 08:37 | 47.29899 | 11.54573 | 4933 ft | 149 kts | 248° |
| 2026-05-04 08:38 | 47.29507 | 11.53175 | 4703 ft | 148 kts | 248° |
| 2026-05-04 08:38 | 47.29120 | 11.51793 | 4487 ft | 147 kts | 248° |
| 2026-05-04 08:38 | 47.28723 | 11.50382 | 4260 ft | 147 kts | 248° |
| 2026-05-04 08:40 | 47.26671 | 11.40490 | 2684 ft | 143 kts | 260° |
| 2026-05-04 08:40 | 47.26517 | 11.39046 | 2445 ft | 142 kts | 261° |
| 2026-05-04 08:40 | 47.26363 | 11.37615 | 2225 ft | 141 kts | 261° |
| 2026-05-04 08:41 | 47.26211 | 11.36196 | 2009 ft | 140 kts | 261° |
| 2026-05-04 08:41 | 47.26066 | 11.34840 | 1892 ft | 113 kts | 262° |
| 2026-05-04 08:41 | 47.25972 | 11.33951 | 1904 ft | 67 kts | 261° |
| 2026-05-04 08:41 | 47.25923 | 11.33702 | 1893 ft | 9 kts | 187° |
| 2026-05-04 08:42 | 47.25876 | 11.33750 | 1901 ft | 8 kts | 130° |
| 2026-05-04 08:42 | 47.25842 | 11.33810 | 1898 ft | 7 kts | 130° |
| 2026-05-04 08:42 | 47.25814 | 11.33866 | 1898 ft | 6 kts | 122° |
| 2026-05-04 08:42 | 47.25785 | 11.33945 | 1898 ft | 14 kts | 117° |
| 2026-05-04 08:43 | 47.25769 | 11.34072 | 1896 ft | 4 kts | 80° |
| 2026-05-04 08:43 | 47.25773 | 11.34109 | 1901 ft | 3 kts | 80° |
| 2026-05-04 08:43 | 47.25779 | 11.34153 | 1898 ft | 9 kts | 80° |
| 2026-05-04 08:43 | 47.25793 | 11.34275 | 1900 ft | 13 kts | 80° |
| 2026-05-04 08:44 | 47.25807 | 11.34403 | 1900 ft | 13 kts | 81° |
| 2026-05-04 08:44 | 47.25822 | 11.34530 | 1896 ft | 13 kts | 81° |
| 2026-05-04 08:46 | 47.25851 | 11.35046 | 1894 ft | 4 kts | 162° |
| 2026-05-04 08:46 | 47.25827 | 11.35050 | 1901 ft | 2 kts | 172° |
| 2026-05-04 08:46 | 47.25823 | 11.35051 | 1902 ft | 0 kts | 172° |